sensor_id;sensor_type;location;lat;lon;timestamp;pressure;altitude;pressure_sealevel;temperature;humidity
54978;BME280;40873;47.522;19.106;2023-08-08T00:02:02;100293.69;;;13.84;100.00
54978;BME280;40873;47.522;19.106;2023-08-08T00:04:29;100299.63;;;13.87;100.00
54978;BME280;40873;47.522;19.106;2023-08-08T00:06:56;100308.56;;;13.86;100.00
54978;BME280;40873;47.522;19.106;2023-08-08T00:09:24;100304.69;;;13.90;100.00
54978;BME280;40873;47.522;19.106;2023-08-08T00:11:51;100303.13;;;13.88;100.00
54978;BME280;40873;47.522;19.106;2023-08-08T00:14:18;100305.91;;;13.86;100.00
54978;BME280;40873;47.522;19.106;2023-08-08T00:16:44;100315.66;;;13.86;100.00
54978;BME280;40873;47.522;19.106;2023-08-08T00:19:12;100310.25;;;13.87;100.00
54978;BME280;40873;47.522;19.106;2023-08-08T00:21:38;100311.31;;;13.85;100.00
54978;BME280;40873;47.522;19.106;2023-08-08T00:24:06;100317.22;;;13.88;100.00
54978;BME280;40873;47.522;19.106;2023-08-08T00:26:33;100311.94;;;13.88;100.00
54978;BME280;40873;47.522;19.106;2023-08-08T00:29:00;100326.28;;;13.86;100.00
54978;BME280;40873;47.522;19.106;2023-08-08T00:31:27;100315.66;;;13.86;100.00
54978;BME280;40873;47.522;19.106;2023-08-08T00:33:54;100320.13;;;13.85;100.00
54978;BME280;40873;47.522;19.106;2023-08-08T00:36:21;100329.78;;;13.86;100.00
54978;BME280;40873;47.522;19.106;2023-08-08T00:38:48;100331.69;;;13.84;100.00
54978;BME280;40873;47.522;19.106;2023-08-08T00:41:15;100332.53;;;13.85;100.00
54978;BME280;40873;47.522;19.106;2023-08-08T00:43:43;100336.75;;;13.87;100.00
54978;BME280;40873;47.522;19.106;2023-08-08T00:46:11;100339.66;;;13.84;100.00
54978;BME280;40873;47.522;19.106;2023-08-08T00:48:38;100333.47;;;13.84;100.00
54978;BME280;40873;47.522;19.106;2023-08-08T00:51:05;100339.03;;;13.81;100.00
54978;BME280;40873;47.522;19.106;2023-08-08T00:53:32;100340.81;;;13.80;100.00
54978;BME280;40873;47.522;19.106;2023-08-08T00:55:59;100349.03;;;13.77;100.00
54978;BME280;40873;47.522;19.106;2023-08-08T00:58:27;100349.09;;;13.76;100.00
54978;BME280;40873;47.522;19.106;2023-08-08T01:00:55;100343.72;;;13.77;100.00
54978;BME280;40873;47.522;19.106;2023-08-08T01:03:24;100343.09;;;13.74;100.00
54978;BME280;40873;47.522;19.106;2023-08-08T01:05:59;100347.66;;;13.71;100.00
54978;BME280;40873;47.522;19.106;2023-08-08T01:08:35;100348.84;;;13.67;100.00
54978;BME280;40873;47.522;19.106;2023-08-08T01:11:06;100342.69;;;13.67;100.00
54978;BME280;40873;47.522;19.106;2023-08-08T01:13:33;100354.97;;;13.68;100.00
54978;BME280;40873;47.522;19.106;2023-08-08T01:16:02;100346.91;;;13.69;100.00
54978;BME280;40873;47.522;19.106;2023-08-08T01:18:32;100353.16;;;13.68;100.00
54978;BME280;40873;47.522;19.106;2023-08-08T01:21:01;100349.56;;;13.69;100.00
54978;BME280;40873;47.522;19.106;2023-08-08T01:23:56;100354.97;;;13.68;100.00
54978;BME280;40873;47.522;19.106;2023-08-08T01:26:27;100352.31;;;13.68;100.00
54978;BME280;40873;47.522;19.106;2023-08-08T01:28:55;100349.47;;;13.71;100.00
54978;BME280;40873;47.522;19.106;2023-08-08T01:31:22;100352.00;;;13.73;100.00
54978;BME280;40873;47.522;19.106;2023-08-08T01:33:49;100348.38;;;13.74;100.00
54978;BME280;40873;47.522;19.106;2023-08-08T01:36:30;100340.03;;;13.67;100.00
54978;BME280;40873;47.522;19.106;2023-08-08T01:39:00;100340.56;;;13.72;100.00
54978;BME280;40873;47.522;19.106;2023-08-08T01:41:34;100341.00;;;13.66;100.00
54978;BME280;40873;47.522;19.106;2023-08-08T01:44:04;100343.00;;;13.62;100.00
54978;BME280;40873;47.522;19.106;2023-08-08T01:46:33;100344.09;;;13.60;100.00
54978;BME280;40873;47.522;19.106;2023-08-08T01:49:00;100342.41;;;13.59;100.00
54978;BME280;40873;47.522;19.106;2023-08-08T01:51:27;100344.72;;;13.63;100.00
54978;BME280;40873;47.522;19.106;2023-08-08T01:53:55;100342.16;;;13.62;100.00
54978;BME280;40873;47.522;19.106;2023-08-08T01:56:22;100344.94;;;13.60;100.00
54978;BME280;40873;47.522;19.106;2023-08-08T01:58:49;100342.59;;;13.56;100.00
54978;BME280;40873;47.522;19.106;2023-08-08T02:01:16;100344.53;;;13.54;100.00
54978;BME280;40873;47.522;19.106;2023-08-08T02:03:43;100355.97;;;13.54;100.00
54978;BME280;40873;47.522;19.106;2023-08-08T02:06:10;100349.84;;;13.54;100.00
54978;BME280;40873;47.522;19.106;2023-08-08T02:08:37;100349.22;;;13.50;100.00
54978;BME280;40873;47.522;19.106;2023-08-08T02:11:04;100349.22;;;13.50;100.00
54978;BME280;40873;47.522;19.106;2023-08-08T02:13:31;100352.72;;;13.51;100.00
54978;BME280;40873;47.522;19.106;2023-08-08T02:15:58;100355.69;;;13.46;100.00
54978;BME280;40873;47.522;19.106;2023-08-08T02:18:25;100358.47;;;13.44;100.00
54978;BME280;40873;47.522;19.106;2023-08-08T02:20:52;100357.22;;;13.37;100.00
54978;BME280;40873;47.522;19.106;2023-08-08T02:23:19;100358.06;;;13.38;100.00
54978;BME280;40873;47.522;19.106;2023-08-08T02:25:46;100367.94;;;13.36;100.00
54978;BME280;40873;47.522;19.106;2023-08-08T02:28:13;100365.59;;;13.31;100.00
54978;BME280;40873;47.522;19.106;2023-08-08T02:30:40;100363.25;;;13.27;100.00
54978;BME280;40873;47.522;19.106;2023-08-08T02:33:08;100373.03;;;13.26;100.00
54978;BME280;40873;47.522;19.106;2023-08-08T02:35:36;100373.38;;;13.22;100.00
54978;BME280;40873;47.522;19.106;2023-08-08T02:38:04;100369.06;;;13.19;100.00
54978;BME280;40873;47.522;19.106;2023-08-08T02:40:31;100366.34;;;13.21;100.00
54978;BME280;40873;47.522;19.106;2023-08-08T02:42:59;100367.94;;;13.10;100.00
54978;BME280;40873;47.522;19.106;2023-08-08T02:45:26;100362.00;;;13.07;100.00
54978;BME280;40873;47.522;19.106;2023-08-08T02:47:53;100373.34;;;13.09;100.00
54978;BME280;40873;47.522;19.106;2023-08-08T02:50:20;100361.38;;;13.03;100.00
54978;BME280;40873;47.522;19.106;2023-08-08T02:52:48;100371.25;;;13.01;100.00
54978;BME280;40873;47.522;19.106;2023-08-08T02:55:15;100375.69;;;13.01;100.00
54978;BME280;40873;47.522;19.106;2023-08-08T02:57:42;100377.47;;;13.00;100.00
54978;BME280;40873;47.522;19.106;2023-08-08T03:00:10;100385.53;;;12.99;100.00
54978;BME280;40873;47.522;19.106;2023-08-08T03:02:38;100384.78;;;12.97;100.00
54978;BME280;40873;47.522;19.106;2023-08-08T03:05:05;100383.72;;;12.99;100.00
54978;BME280;40873;47.522;19.106;2023-08-08T03:07:32;100379.72;;;12.94;100.00
54978;BME280;40873;47.522;19.106;2023-08-08T03:09:59;100382.25;;;12.95;100.00
54978;BME280;40873;47.522;19.106;2023-08-08T03:12:26;100385.22;;;12.90;100.00
54978;BME280;40873;47.522;19.106;2023-08-08T03:14:53;100383.53;;;12.89;100.00
54978;BME280;40873;47.522;19.106;2023-08-08T03:17:20;100390.63;;;12.89;100.00
54978;BME280;40873;47.522;19.106;2023-08-08T03:19:47;100393.56;;;12.84;100.00
54978;BME280;40873;47.522;19.106;2023-08-08T03:22:14;100389.34;;;12.82;100.00
54978;BME280;40873;47.522;19.106;2023-08-08T03:24:41;100388.41;;;12.83;100.00
54978;BME280;40873;47.522;19.106;2023-08-08T03:27:08;100396.34;;;12.83;100.00
54978;BME280;40873;47.522;19.106;2023-08-08T03:29:36;100396.66;;;12.78;100.00
54978;BME280;40873;47.522;19.106;2023-08-08T03:32:04;100411.69;;;12.78;100.00
54978;BME280;40873;47.522;19.106;2023-08-08T03:34:31;100414.97;;;12.81;100.00
54978;BME280;40873;47.522;19.106;2023-08-08T03:36:59;100412.09;;;12.84;100.00
54978;BME280;40873;47.522;19.106;2023-08-08T03:39:26;100426.31;;;12.83;100.00
54978;BME280;40873;47.522;19.106;2023-08-08T03:41:53;100424.63;;;12.82;100.00
54978;BME280;40873;47.522;19.106;2023-08-08T03:44:20;100430.03;;;12.81;100.00
54978;BME280;40873;47.522;19.106;2023-08-08T03:46:47;100430.75;;;12.83;100.00
54978;BME280;40873;47.522;19.106;2023-08-08T03:49:14;100438.47;;;12.86;100.00
54978;BME280;40873;47.522;19.106;2023-08-08T03:51:42;100437.75;;;12.84;100.00
54978;BME280;40873;47.522;19.106;2023-08-08T03:54:08;100443.78;;;12.86;100.00
54978;BME280;40873;47.522;19.106;2023-08-08T03:56:36;100449.84;;;12.88;100.00
54978;BME280;40873;47.522;19.106;2023-08-08T03:59:02;100454.78;;;12.93;100.00
54978;BME280;40873;47.522;19.106;2023-08-08T04:01:29;100460.31;;;12.89;100.00
54978;BME280;40873;47.522;19.106;2023-08-08T04:03:56;100456.72;;;12.90;100.00
54978;BME280;40873;47.522;19.106;2023-08-08T04:06:24;100460.84;;;12.95;100.00
54978;BME280;40873;47.522;19.106;2023-08-08T04:08:51;100464.47;;;12.94;100.00
54978;BME280;40873;47.522;19.106;2023-08-08T04:11:18;100462.84;;;12.91;100.00
54978;BME280;40873;47.522;19.106;2023-08-08T04:13:45;100468.03;;;12.93;100.00
54978;BME280;40873;47.522;19.106;2023-08-08T04:16:12;100468.81;;;12.95;100.00
54978;BME280;40873;47.522;19.106;2023-08-08T04:18:39;100469.41;;;12.98;100.00
54978;BME280;40873;47.522;19.106;2023-08-08T04:21:06;100469.13;;;13.03;100.00
54978;BME280;40873;47.522;19.106;2023-08-08T04:23:33;100482.97;;;13.06;100.00
54978;BME280;40873;47.522;19.106;2023-08-08T04:26:00;100480.97;;;13.10;100.00
54978;BME280;40873;47.522;19.106;2023-08-08T04:28:27;100493.94;;;13.14;100.00
54978;BME280;40873;47.522;19.106;2023-08-08T04:30:54;100494.34;;;13.21;100.00
54978;BME280;40873;47.522;19.106;2023-08-08T04:33:21;100489.41;;;13.29;100.00
54978;BME280;40873;47.522;19.106;2023-08-08T04:35:48;100488.84;;;13.37;100.00
54978;BME280;40873;47.522;19.106;2023-08-08T04:38:15;100496.47;;;13.41;100.00
54978;BME280;40873;47.522;19.106;2023-08-08T04:40:42;100497.22;;;13.43;100.00
54978;BME280;40873;47.522;19.106;2023-08-08T04:43:10;100495.09;;;13.49;100.00
54978;BME280;40873;47.522;19.106;2023-08-08T04:45:37;100487.66;;;13.54;100.00
54978;BME280;40873;47.522;19.106;2023-08-08T04:48:04;100499.13;;;13.54;100.00
54978;BME280;40873;47.522;19.106;2023-08-08T04:50:32;100498.81;;;13.59;100.00
54978;BME280;40873;47.522;19.106;2023-08-08T04:52:59;100492.84;;;13.68;100.00
54978;BME280;40873;47.522;19.106;2023-08-08T04:55:26;100494.22;;;13.74;100.00
54978;BME280;40873;47.522;19.106;2023-08-08T04:57:54;100492.94;;;13.79;100.00
54978;BME280;40873;47.522;19.106;2023-08-08T05:00:21;100492.25;;;13.88;100.00
54978;BME280;40873;47.522;19.106;2023-08-08T05:02:49;100490.88;;;13.95;100.00
54978;BME280;40873;47.522;19.106;2023-08-08T05:05:16;100500.44;;;13.98;100.00
54978;BME280;40873;47.522;19.106;2023-08-08T05:07:43;100500.88;;;14.16;100.00
54978;BME280;40873;47.522;19.106;2023-08-08T05:10:10;100500.56;;;14.20;100.00
54978;BME280;40873;47.522;19.106;2023-08-08T05:12:37;100493.13;;;14.25;100.00
54978;BME280;40873;47.522;19.106;2023-08-08T05:15:05;100500.41;;;14.35;100.00
54978;BME280;40873;47.522;19.106;2023-08-08T05:17:32;100498.00;;;14.43;100.00
54978;BME280;40873;47.522;19.106;2023-08-08T05:19:59;100507.13;;;14.51;100.00
54978;BME280;40873;47.522;19.106;2023-08-08T05:22:26;100507.19;;;14.63;100.00
54978;BME280;40873;47.522;19.106;2023-08-08T05:24:53;100508.44;;;14.70;100.00
54978;BME280;40873;47.522;19.106;2023-08-08T05:27:20;100509.78;;;14.75;100.00
54978;BME280;40873;47.522;19.106;2023-08-08T05:29:47;100501.34;;;14.82;100.00
54978;BME280;40873;47.522;19.106;2023-08-08T05:32:14;100505.97;;;14.91;100.00
54978;BME280;40873;47.522;19.106;2023-08-08T05:34:41;100506.34;;;14.97;100.00
54978;BME280;40873;47.522;19.106;2023-08-08T05:37:08;100523.72;;;15.01;100.00
54978;BME280;40873;47.522;19.106;2023-08-08T05:39:44;100516.97;;;15.08;100.00
54978;BME280;40873;47.522;19.106;2023-08-08T05:42:11;100520.13;;;15.14;100.00
54978;BME280;40873;47.522;19.106;2023-08-08T05:44:38;100516.53;;;15.26;100.00
54978;BME280;40873;47.522;19.106;2023-08-08T05:47:05;100522.47;;;15.29;100.00
54978;BME280;40873;47.522;19.106;2023-08-08T05:49:33;100517.41;;;15.38;100.00
54978;BME280;40873;47.522;19.106;2023-08-08T05:52:01;100521.16;;;15.46;100.00
54978;BME280;40873;47.522;19.106;2023-08-08T05:54:28;100520.44;;;15.55;100.00
54978;BME280;40873;47.522;19.106;2023-08-08T05:56:55;100535.69;;;15.53;100.00
54978;BME280;40873;47.522;19.106;2023-08-08T05:59:22;100528.53;;;15.54;100.00
54978;BME280;40873;47.522;19.106;2023-08-08T06:01:49;100536.16;;;15.58;100.00
54978;BME280;40873;47.522;19.106;2023-08-08T06:04:17;100529.03;;;15.59;100.00
54978;BME280;40873;47.522;19.106;2023-08-08T06:06:44;100530.00;;;15.58;100.00
54978;BME280;40873;47.522;19.106;2023-08-08T06:09:11;100522.88;;;15.58;100.00
54978;BME280;40873;47.522;19.106;2023-08-08T06:11:38;100526.03;;;15.63;100.00
54978;BME280;40873;47.522;19.106;2023-08-08T06:14:06;100526.03;;;15.75;100.00
54978;BME280;40873;47.522;19.106;2023-08-08T06:16:32;100527.72;;;15.76;100.00
54978;BME280;40873;47.522;19.106;2023-08-08T06:19:00;100518.44;;;15.93;100.00
54978;BME280;40873;47.522;19.106;2023-08-08T06:21:27;100524.81;;;16.01;100.00
54978;BME280;40873;47.522;19.106;2023-08-08T06:23:54;100534.00;;;16.08;99.88
54978;BME280;40873;47.522;19.106;2023-08-08T06:26:22;100527.91;;;16.17;100.00
54978;BME280;40873;47.522;19.106;2023-08-08T06:28:49;100533.81;;;16.32;97.85
54978;BME280;40873;47.522;19.106;2023-08-08T06:31:18;100531.84;;;16.45;99.42
54978;BME280;40873;47.522;19.106;2023-08-08T06:33:46;100536.03;;;16.59;98.34
54978;BME280;40873;47.522;19.106;2023-08-08T06:36:13;100544.25;;;16.67;94.76
54978;BME280;40873;47.522;19.106;2023-08-08T06:38:40;100541.09;;;16.74;93.77
54978;BME280;40873;47.522;19.106;2023-08-08T06:41:07;100538.72;;;16.70;94.61
54978;BME280;40873;47.522;19.106;2023-08-08T06:43:35;100538.41;;;16.85;93.98
54978;BME280;40873;47.522;19.106;2023-08-08T06:46:02;100542.72;;;16.97;93.23
54978;BME280;40873;47.522;19.106;2023-08-08T06:48:29;100549.22;;;17.04;93.83
54978;BME280;40873;47.522;19.106;2023-08-08T06:50:56;100543.81;;;17.15;92.86
54978;BME280;40873;47.522;19.106;2023-08-08T06:53:23;100555.97;;;17.08;92.14
54978;BME280;40873;47.522;19.106;2023-08-08T06:55:50;100562.13;;;17.09;91.98
54978;BME280;40873;47.522;19.106;2023-08-08T06:58:18;100564.56;;;17.12;92.00
54978;BME280;40873;47.522;19.106;2023-08-08T07:00:45;100562.47;;;17.15;93.13
54978;BME280;40873;47.522;19.106;2023-08-08T07:03:12;100557.78;;;17.29;91.72
54978;BME280;40873;47.522;19.106;2023-08-08T07:05:39;100551.75;;;17.47;93.17
54978;BME280;40873;47.522;19.106;2023-08-08T07:08:06;100555.03;;;17.61;90.70
54978;BME280;40873;47.522;19.106;2023-08-08T07:10:35;100550.09;;;17.77;91.59
54978;BME280;40873;47.522;19.106;2023-08-08T07:13:03;100553.09;;;17.93;89.53
54978;BME280;40873;47.522;19.106;2023-08-08T07:15:30;100550.41;;;17.93;88.88
54978;BME280;40873;47.522;19.106;2023-08-08T07:17:58;100545.75;;;17.86;87.05
54978;BME280;40873;47.522;19.106;2023-08-08T07:20:25;100559.41;;;17.92;89.81
54978;BME280;40873;47.522;19.106;2023-08-08T07:22:52;100561.69;;;17.97;89.40
54978;BME280;40873;47.522;19.106;2023-08-08T07:25:19;100548.91;;;18.00;89.99
54978;BME280;40873;47.522;19.106;2023-08-08T07:27:46;100556.38;;;18.06;87.18
54978;BME280;40873;47.522;19.106;2023-08-08T07:30:13;100552.97;;;17.95;86.93
54978;BME280;40873;47.522;19.106;2023-08-08T07:32:41;100557.09;;;18.08;86.58
54978;BME280;40873;47.522;19.106;2023-08-08T07:35:07;100552.78;;;17.87;86.00
54978;BME280;40873;47.522;19.106;2023-08-08T07:37:35;100551.09;;;17.86;87.74
54978;BME280;40873;47.522;19.106;2023-08-08T07:40:02;100553.22;;;17.92;86.32
54978;BME280;40873;47.522;19.106;2023-08-08T07:42:31;100562.13;;;18.02;85.38
54978;BME280;40873;47.522;19.106;2023-08-08T07:44:58;100563.06;;;17.91;84.29
54978;BME280;40873;47.522;19.106;2023-08-08T07:47:25;100562.84;;;18.04;85.46
54978;BME280;40873;47.522;19.106;2023-08-08T07:49:52;100570.88;;;18.14;84.85
54978;BME280;40873;47.522;19.106;2023-08-08T07:52:19;100565.56;;;18.23;83.64
54978;BME280;40873;47.522;19.106;2023-08-08T07:54:46;100570.91;;;18.23;82.94
54978;BME280;40873;47.522;19.106;2023-08-08T07:57:13;100563.75;;;18.24;83.50
54978;BME280;40873;47.522;19.106;2023-08-08T07:59:40;100571.06;;;18.41;83.52
54978;BME280;40873;47.522;19.106;2023-08-08T08:02:07;100568.00;;;18.46;85.10
54978;BME280;40873;47.522;19.106;2023-08-08T08:04:34;100563.78;;;18.62;83.30
54978;BME280;40873;47.522;19.106;2023-08-08T08:07:02;100555.41;;;18.77;79.50
54978;BME280;40873;47.522;19.106;2023-08-08T08:09:29;100559.34;;;18.82;79.67
54978;BME280;40873;47.522;19.106;2023-08-08T08:11:56;100557.94;;;18.98;79.09
54978;BME280;40873;47.522;19.106;2023-08-08T08:14:24;100564.41;;;19.14;76.63
54978;BME280;40873;47.522;19.106;2023-08-08T08:16:51;100571.97;;;19.19;76.84
54978;BME280;40873;47.522;19.106;2023-08-08T08:19:19;100568.03;;;19.42;76.54
54978;BME280;40873;47.522;19.106;2023-08-08T08:21:46;100566.72;;;19.66;75.73
54978;BME280;40873;47.522;19.106;2023-08-08T08:24:13;100564.72;;;19.78;74.13
54978;BME280;40873;47.522;19.106;2023-08-08T08:26:42;100577.31;;;19.95;68.76
54978;BME280;40873;47.522;19.106;2023-08-08T08:29:09;100572.78;;;20.05;67.80
54978;BME280;40873;47.522;19.106;2023-08-08T08:31:36;100568.34;;;20.14;69.78
54978;BME280;40873;47.522;19.106;2023-08-08T08:34:04;100580.97;;;20.31;65.80
54978;BME280;40873;47.522;19.106;2023-08-08T08:36:32;100574.41;;;20.16;65.57
54978;BME280;40873;47.522;19.106;2023-08-08T08:38:59;100571.44;;;20.19;69.13
54978;BME280;40873;47.522;19.106;2023-08-08T08:41:27;100565.84;;;20.30;67.51
54978;BME280;40873;47.522;19.106;2023-08-08T08:43:55;100578.56;;;20.56;67.12
54978;BME280;40873;47.522;19.106;2023-08-08T08:46:22;100566.50;;;20.51;64.14
54978;BME280;40873;47.522;19.106;2023-08-08T08:48:54;100560.97;;;20.53;62.45
54978;BME280;40873;47.522;19.106;2023-08-08T08:51:23;100568.78;;;20.46;63.64
54978;BME280;40873;47.522;19.106;2023-08-08T08:53:51;100573.97;;;20.48;63.88
54978;BME280;40873;47.522;19.106;2023-08-08T08:56:18;100574.66;;;20.50;63.91
54978;BME280;40873;47.522;19.106;2023-08-08T08:58:46;100570.88;;;20.43;62.56
54978;BME280;40873;47.522;19.106;2023-08-08T09:01:14;100562.28;;;20.39;63.17
54978;BME280;40873;47.522;19.106;2023-08-08T09:03:43;100567.16;;;20.53;66.55
54978;BME280;40873;47.522;19.106;2023-08-08T09:06:12;100565.00;;;20.30;64.58
54978;BME280;40873;47.522;19.106;2023-08-08T09:08:39;100581.94;;;20.30;64.68
54978;BME280;40873;47.522;19.106;2023-08-08T09:11:06;100571.88;;;20.14;64.38
54978;BME280;40873;47.522;19.106;2023-08-08T09:13:36;100583.47;;;20.05;64.17
54978;BME280;40873;47.522;19.106;2023-08-08T09:16:06;100585.34;;;19.95;67.36
54978;BME280;40873;47.522;19.106;2023-08-08T09:18:33;100587.50;;;20.19;63.07
54978;BME280;40873;47.522;19.106;2023-08-08T09:21:00;100572.53;;;20.44;63.94
54978;BME280;40873;47.522;19.106;2023-08-08T09:23:27;100578.41;;;20.57;65.11
54978;BME280;40873;47.522;19.106;2023-08-08T09:25:54;100583.56;;;20.68;63.97
54978;BME280;40873;47.522;19.106;2023-08-08T09:28:21;100582.72;;;20.68;64.90
54978;BME280;40873;47.522;19.106;2023-08-08T09:30:49;100583.88;;;20.83;66.29
54978;BME280;40873;47.522;19.106;2023-08-08T09:33:17;100589.22;;;21.19;65.90
54978;BME280;40873;47.522;19.106;2023-08-08T09:35:44;100584.22;;;21.42;62.22
54978;BME280;40873;47.522;19.106;2023-08-08T09:38:11;100577.53;;;21.64;61.84
54978;BME280;40873;47.522;19.106;2023-08-08T09:40:39;100584.44;;;21.74;60.41
54978;BME280;40873;47.522;19.106;2023-08-08T09:43:07;100584.44;;;21.74;57.93
54978;BME280;40873;47.522;19.106;2023-08-08T09:45:39;100590.44;;;21.94;59.32
54978;BME280;40873;47.522;19.106;2023-08-08T09:48:08;100570.50;;;22.05;59.70
54978;BME280;40873;47.522;19.106;2023-08-08T09:50:36;100583.56;;;21.92;62.80
54978;BME280;40873;47.522;19.106;2023-08-08T09:53:03;100581.16;;;21.88;60.46
54978;BME280;40873;47.522;19.106;2023-08-08T09:55:33;100581.56;;;21.68;58.59
54978;BME280;40873;47.522;19.106;2023-08-08T09:58:02;100587.16;;;21.82;57.12
54978;BME280;40873;47.522;19.106;2023-08-08T10:00:30;100577.94;;;21.77;58.28
54978;BME280;40873;47.522;19.106;2023-08-08T10:03:01;100575.97;;;21.87;58.68
54978;BME280;40873;47.522;19.106;2023-08-08T10:05:30;100574.66;;;21.65;57.79
54978;BME280;40873;47.522;19.106;2023-08-08T10:07:57;100579.63;;;21.78;57.97
54978;BME280;40873;47.522;19.106;2023-08-08T10:10:24;100580.06;;;21.99;58.13
54978;BME280;40873;47.522;19.106;2023-08-08T10:12:52;100575.81;;;22.23;58.38
54978;BME280;40873;47.522;19.106;2023-08-08T10:15:25;100570.34;;;22.40;60.22
54978;BME280;40873;47.522;19.106;2023-08-08T10:17:56;100568.22;;;22.60;56.28
54978;BME280;40873;47.522;19.106;2023-08-08T10:20:25;100565.16;;;22.55;58.43
54978;BME280;40873;47.522;19.106;2023-08-08T10:22:53;100552.91;;;22.69;54.91
54978;BME280;40873;47.522;19.106;2023-08-08T10:25:25;100549.78;;;22.98;55.06
54978;BME280;40873;47.522;19.106;2023-08-08T10:28:04;100556.69;;;23.17;56.39
54978;BME280;40873;47.522;19.106;2023-08-08T10:30:57;100550.75;;;23.38;56.20
54978;BME280;40873;47.522;19.106;2023-08-08T10:33:26;100551.75;;;23.45;55.63
54978;BME280;40873;47.522;19.106;2023-08-08T10:38:24;100546.72;;;23.01;51.56
54978;BME280;40873;47.522;19.106;2023-08-08T10:41:02;100547.09;;;22.98;51.80
54978;BME280;40873;47.522;19.106;2023-08-08T10:43:30;100540.69;;;22.91;50.40
54978;BME280;40873;47.522;19.106;2023-08-08T10:46:01;100548.59;;;23.09;51.06
54978;BME280;40873;47.522;19.106;2023-08-08T10:48:52;100542.00;;;23.36;49.72
54978;BME280;40873;47.522;19.106;2023-08-08T10:51:19;100545.91;;;23.01;48.64
54978;BME280;40873;47.522;19.106;2023-08-08T10:53:47;100539.69;;;23.16;48.43
54978;BME280;40873;47.522;19.106;2023-08-08T10:56:18;100537.31;;;23.30;50.07
54978;BME280;40873;47.522;19.106;2023-08-08T10:58:49;100537.13;;;23.39;48.01
54978;BME280;40873;47.522;19.106;2023-08-08T11:01:16;100541.31;;;23.42;50.30
54978;BME280;40873;47.522;19.106;2023-08-08T11:03:45;100534.94;;;23.51;49.57
54978;BME280;40873;47.522;19.106;2023-08-08T11:06:13;100531.34;;;23.75;49.49
54978;BME280;40873;47.522;19.106;2023-08-08T11:08:40;100532.84;;;24.17;48.35
54978;BME280;40873;47.522;19.106;2023-08-08T11:11:08;100529.38;;;23.52;48.22
54978;BME280;40873;47.522;19.106;2023-08-08T11:13:35;100533.63;;;23.31;47.55
54978;BME280;40873;47.522;19.106;2023-08-08T11:16:02;100530.91;;;23.31;49.13
54978;BME280;40873;47.522;19.106;2023-08-08T11:18:29;100533.88;;;23.60;49.00
54978;BME280;40873;47.522;19.106;2023-08-08T11:20:57;100541.81;;;23.62;48.68
54978;BME280;40873;47.522;19.106;2023-08-08T11:23:45;100535.75;;;23.43;47.75
54978;BME280;40873;47.522;19.106;2023-08-08T11:26:12;100532.38;;;23.66;48.42
54978;BME280;40873;47.522;19.106;2023-08-08T11:28:51;100533.38;;;23.73;48.86
54978;BME280;40873;47.522;19.106;2023-08-08T11:31:22;100533.69;;;23.78;49.66
54978;BME280;40873;47.522;19.106;2023-08-08T11:33:50;100532.75;;;24.02;47.92
54978;BME280;40873;47.522;19.106;2023-08-08T11:36:17;100531.69;;;23.64;48.98
54978;BME280;40873;47.522;19.106;2023-08-08T11:38:45;100533.09;;;23.35;50.32
54978;BME280;40873;47.522;19.106;2023-08-08T11:41:15;100532.44;;;22.92;49.65
54978;BME280;40873;47.522;19.106;2023-08-08T11:43:43;100538.00;;;22.91;49.92
54978;BME280;40873;47.522;19.106;2023-08-08T11:46:12;100537.63;;;23.35;51.68
54978;BME280;40873;47.522;19.106;2023-08-08T11:48:40;100529.53;;;23.51;48.16
54978;BME280;40873;47.522;19.106;2023-08-08T11:51:08;100531.75;;;23.31;47.67
54978;BME280;40873;47.522;19.106;2023-08-08T11:53:35;100529.03;;;23.47;49.46
54978;BME280;40873;47.522;19.106;2023-08-08T11:56:03;100519.59;;;23.68;47.87
54978;BME280;40873;47.522;19.106;2023-08-08T11:58:30;100522.72;;;23.88;47.43
54978;BME280;40873;47.522;19.106;2023-08-08T12:00:58;100528.25;;;23.94;46.89
54978;BME280;40873;47.522;19.106;2023-08-08T12:03:26;100518.31;;;23.95;48.29
54978;BME280;40873;47.522;19.106;2023-08-08T12:05:53;100517.59;;;24.01;47.09
54978;BME280;40873;47.522;19.106;2023-08-08T12:08:21;100512.47;;;23.75;49.62
54978;BME280;40873;47.522;19.106;2023-08-08T12:10:49;100512.34;;;23.68;48.35
54978;BME280;40873;47.522;19.106;2023-08-08T12:13:22;100510.81;;;24.05;51.70
54978;BME280;40873;47.522;19.106;2023-08-08T12:15:49;100508.50;;;24.41;46.64
54978;BME280;40873;47.522;19.106;2023-08-08T12:18:18;100504.72;;;24.50;46.13
54978;BME280;40873;47.522;19.106;2023-08-08T12:20:45;100499.97;;;24.21;46.00
54978;BME280;40873;47.522;19.106;2023-08-08T12:23:13;100499.56;;;24.32;46.06
54978;BME280;40873;47.522;19.106;2023-08-08T12:25:42;100486.53;;;24.67;46.31
54978;BME280;40873;47.522;19.106;2023-08-08T12:28:09;100482.94;;;24.75;43.97
54978;BME280;40873;47.522;19.106;2023-08-08T12:30:37;100496.44;;;24.52;41.94
54978;BME280;40873;47.522;19.106;2023-08-08T12:33:04;100498.78;;;24.24;40.57
54978;BME280;40873;47.522;19.106;2023-08-08T12:35:31;100495.94;;;24.17;42.70
54978;BME280;40873;47.522;19.106;2023-08-08T12:37:58;100493.78;;;24.13;41.88
54978;BME280;40873;47.522;19.106;2023-08-08T12:40:25;100498.16;;;24.45;41.48
54978;BME280;40873;47.522;19.106;2023-08-08T12:42:52;100491.66;;;24.62;41.67